sensor_id;sensor_type;location;lat;lon;timestamp;temperature;humidity
76878;DHT22;65843;50.692;12.844;2023-11-22T00:00:10;9.60;67.00
76878;DHT22;65843;50.692;12.844;2023-11-22T00:01:11;9.60;66.80
76878;DHT22;65843;50.692;12.844;2023-11-22T00:02:13;9.60;67.20
76878;DHT22;65843;50.692;12.844;2023-11-22T00:03:14;9.50;67.30
76878;DHT22;65843;50.692;12.844;2023-11-22T00:04:14;9.50;67.20
76878;DHT22;65843;50.692;12.844;2023-11-22T00:05:15;9.50;66.70
76878;DHT22;65843;50.692;12.844;2023-11-22T00:06:17;9.50;66.80
76878;DHT22;65843;50.692;12.844;2023-11-22T00:07:21;9.50;67.10
76878;DHT22;65843;50.692;12.844;2023-11-22T00:08:22;9.40;67.50
76878;DHT22;65843;50.692;12.844;2023-11-22T00:09:23;9.40;68.00
76878;DHT22;65843;50.692;12.844;2023-11-22T00:10:24;9.40;68.00
76878;DHT22;65843;50.692;12.844;2023-11-22T00:11:25;9.50;68.10
76878;DHT22;65843;50.692;12.844;2023-11-22T00:12:26;9.50;67.60
76878;DHT22;65843;50.692;12.844;2023-11-22T00:13:28;9.50;67.20
76878;DHT22;65843;50.692;12.844;2023-11-22T00:14:29;9.50;67.60
76878;DHT22;65843;50.692;12.844;2023-11-22T00:15:30;9.50;67.90
76878;DHT22;65843;50.692;12.844;2023-11-22T00:16:31;9.40;67.40
76878;DHT22;65843;50.692;12.844;2023-11-22T00:17:35;9.50;67.70
76878;DHT22;65843;50.692;12.844;2023-11-22T00:18:36;9.40;67.60
76878;DHT22;65843;50.692;12.844;2023-11-22T00:19:40;9.40;67.80
76878;DHT22;65843;50.692;12.844;2023-11-22T00:20:41;9.40;68.00
76878;DHT22;65843;50.692;12.844;2023-11-22T00:21:42;9.40;68.40
76878;DHT22;65843;50.692;12.844;2023-11-22T00:22:43;9.40;68.20
76878;DHT22;65843;50.692;12.844;2023-11-22T00:23:45;9.40;68.30
76878;DHT22;65843;50.692;12.844;2023-11-22T00:24:47;9.50;68.70
76878;DHT22;65843;50.692;12.844;2023-11-22T00:25:51;9.50;68.70
76878;DHT22;65843;50.692;12.844;2023-11-22T00:26:52;9.50;68.60
76878;DHT22;65843;50.692;12.844;2023-11-22T00:27:53;9.50;68.60
76878;DHT22;65843;50.692;12.844;2023-11-22T00:28:56;9.50;68.60
76878;DHT22;65843;50.692;12.844;2023-11-22T00:29:57;9.50;68.20
76878;DHT22;65843;50.692;12.844;2023-11-22T00:30:58;9.50;68.50
76878;DHT22;65843;50.692;12.844;2023-11-22T00:31:59;9.60;68.30
76878;DHT22;65843;50.692;12.844;2023-11-22T00:33:00;9.60;68.70
76878;DHT22;65843;50.692;12.844;2023-11-22T00:34:01;9.60;68.50
76878;DHT22;65843;50.692;12.844;2023-11-22T00:35:02;9.60;68.40
76878;DHT22;65843;50.692;12.844;2023-11-22T00:36:03;9.60;68.40
76878;DHT22;65843;50.692;12.844;2023-11-22T00:37:05;9.60;68.20
76878;DHT22;65843;50.692;12.844;2023-11-22T00:38:06;9.60;68.20
76878;DHT22;65843;50.692;12.844;2023-11-22T00:39:07;9.60;68.10
76878;DHT22;65843;50.692;12.844;2023-11-22T00:40:10;9.60;67.80
76878;DHT22;65843;50.692;12.844;2023-11-22T00:41:11;9.60;68.00
76878;DHT22;65843;50.692;12.844;2023-11-22T00:42:12;9.60;67.80
76878;DHT22;65843;50.692;12.844;2023-11-22T00:43:13;9.60;67.70
76878;DHT22;65843;50.692;12.844;2023-11-22T00:44:14;9.60;67.70
76878;DHT22;65843;50.692;12.844;2023-11-22T00:45:15;9.60;67.70
76878;DHT22;65843;50.692;12.844;2023-11-22T00:46:16;9.60;67.90
76878;DHT22;65843;50.692;12.844;2023-11-22T00:47:16;9.60;67.30
76878;DHT22;65843;50.692;12.844;2023-11-22T00:48:18;9.60;67.50
76878;DHT22;65843;50.692;12.844;2023-11-22T00:49:19;9.60;67.40
76878;DHT22;65843;50.692;12.844;2023-11-22T00:50:19;9.60;67.00
76878;DHT22;65843;50.692;12.844;2023-11-22T00:51:21;9.60;67.20
76878;DHT22;65843;50.692;12.844;2023-11-22T00:52:23;9.60;67.50
76878;DHT22;65843;50.692;12.844;2023-11-22T00:53:24;9.60;67.30
76878;DHT22;65843;50.692;12.844;2023-11-22T00:54:25;9.60;67.00
76878;DHT22;65843;50.692;12.844;2023-11-22T00:55:26;9.60;67.30
76878;DHT22;65843;50.692;12.844;2023-11-22T00:56:27;9.60;67.30
76878;DHT22;65843;50.692;12.844;2023-11-22T00:57:28;9.50;66.90
76878;DHT22;65843;50.692;12.844;2023-11-22T00:58:30;9.50;67.10
76878;DHT22;65843;50.692;12.844;2023-11-22T00:59:31;9.50;67.30
76878;DHT22;65843;50.692;12.844;2023-11-22T01:00:32;9.50;67.60
76878;DHT22;65843;50.692;12.844;2023-11-22T01:01:33;9.50;67.40
76878;DHT22;65843;50.692;12.844;2023-11-22T01:02:35;9.50;67.50
76878;DHT22;65843;50.692;12.844;2023-11-22T01:03:38;9.50;67.80
76878;DHT22;65843;50.692;12.844;2023-11-22T01:04:40;9.50;68.10
76878;DHT22;65843;50.692;12.844;2023-11-22T01:05:41;9.60;68.00
76878;DHT22;65843;50.692;12.844;2023-11-22T01:06:43;9.60;68.00
76878;DHT22;65843;50.692;12.844;2023-11-22T01:07:44;9.60;68.00
76878;DHT22;65843;50.692;12.844;2023-11-22T01:08:45;9.60;67.80
76878;DHT22;65843;50.692;12.844;2023-11-22T01:09:46;9.60;67.70
76878;DHT22;65843;50.692;12.844;2023-11-22T01:10:46;9.60;67.90
76878;DHT22;65843;50.692;12.844;2023-11-22T01:11:47;9.60;67.50
76878;DHT22;65843;50.692;12.844;2023-11-22T01:12:48;9.60;68.00
76878;DHT22;65843;50.692;12.844;2023-11-22T01:13:49;9.60;68.00
76878;DHT22;65843;50.692;12.844;2023-11-22T01:14:50;9.60;67.80
76878;DHT22;65843;50.692;12.844;2023-11-22T01:15:51;9.60;68.10
76878;DHT22;65843;50.692;12.844;2023-11-22T01:16:52;9.60;68.00
76878;DHT22;65843;50.692;12.844;2023-11-22T01:17:54;9.60;68.00
76878;DHT22;65843;50.692;12.844;2023-11-22T01:18:55;9.60;67.90
76878;DHT22;65843;50.692;12.844;2023-11-22T01:19:56;9.60;67.70
76878;DHT22;65843;50.692;12.844;2023-11-22T01:20:59;9.60;68.00
76878;DHT22;65843;50.692;12.844;2023-11-22T01:22:00;9.60;67.60
76878;DHT22;65843;50.692;12.844;2023-11-22T01:23:01;9.60;67.70
76878;DHT22;65843;50.692;12.844;2023-11-22T01:24:01;9.60;67.60
76878;DHT22;65843;50.692;12.844;2023-11-22T01:25:03;9.60;67.70
76878;DHT22;65843;50.692;12.844;2023-11-22T01:26:05;9.60;67.60
76878;DHT22;65843;50.692;12.844;2023-11-22T01:27:06;9.60;67.40
76878;DHT22;65843;50.692;12.844;2023-11-22T01:28:07;9.60;67.60
76878;DHT22;65843;50.692;12.844;2023-11-22T01:29:08;9.50;67.60
76878;DHT22;65843;50.692;12.844;2023-11-22T01:30:09;9.60;67.40
76878;DHT22;65843;50.692;12.844;2023-11-22T01:31:13;9.50;67.10
76878;DHT22;65843;50.692;12.844;2023-11-22T01:32:14;9.50;67.10
76878;DHT22;65843;50.692;12.844;2023-11-22T01:33:17;9.50;67.20
76878;DHT22;65843;50.692;12.844;2023-11-22T01:34:18;9.50;67.40
76878;DHT22;65843;50.692;12.844;2023-11-22T01:35:19;9.50;67.70
76878;DHT22;65843;50.692;12.844;2023-11-22T01:36:20;9.50;67.80
76878;DHT22;65843;50.692;12.844;2023-11-22T01:37:21;9.50;67.80
76878;DHT22;65843;50.692;12.844;2023-11-22T01:38:22;9.50;68.00
76878;DHT22;65843;50.692;12.844;2023-11-22T01:39:24;9.50;67.70
76878;DHT22;65843;50.692;12.844;2023-11-22T01:40:25;9.50;67.40
76878;DHT22;65843;50.692;12.844;2023-11-22T01:41:27;9.50;67.30
76878;DHT22;65843;50.692;12.844;2023-11-22T01:42:30;9.50;67.50
76878;DHT22;65843;50.692;12.844;2023-11-22T01:43:31;9.50;67.60
76878;DHT22;65843;50.692;12.844;2023-11-22T01:44:32;9.50;67.80
76878;DHT22;65843;50.692;12.844;2023-11-22T01:45:33;9.50;67.70
76878;DHT22;65843;50.692;12.844;2023-11-22T01:46:34;9.60;67.10
76878;DHT22;65843;50.692;12.844;2023-11-22T01:47:35;9.60;66.90
76878;DHT22;65843;50.692;12.844;2023-11-22T01:48:37;9.60;67.00
76878;DHT22;65843;50.692;12.844;2023-11-22T01:49:38;9.60;66.80
76878;DHT22;65843;50.692;12.844;2023-11-22T01:50:39;9.60;66.70
76878;DHT22;65843;50.692;12.844;2023-11-22T01:51:41;9.60;66.80
76878;DHT22;65843;50.692;12.844;2023-11-22T01:52:42;9.60;67.10
76878;DHT22;65843;50.692;12.844;2023-11-22T01:53:43;9.60;67.00
76878;DHT22;65843;50.692;12.844;2023-11-22T01:54:44;9.60;67.00
76878;DHT22;65843;50.692;12.844;2023-11-22T01:55:45;9.60;67.10
76878;DHT22;65843;50.692;12.844;2023-11-22T01:56:47;9.60;67.20
76878;DHT22;65843;50.692;12.844;2023-11-22T01:57:48;9.60;67.20
76878;DHT22;65843;50.692;12.844;2023-11-22T01:58:50;9.60;67.00
76878;DHT22;65843;50.692;12.844;2023-11-22T01:59:51;9.60;67.00
76878;DHT22;65843;50.692;12.844;2023-11-22T02:00:52;9.60;67.10
76878;DHT22;65843;50.692;12.844;2023-11-22T02:01:53;9.60;66.70
76878;DHT22;65843;50.692;12.844;2023-11-22T02:02:55;9.60;67.00
76878;DHT22;65843;50.692;12.844;2023-11-22T02:03:56;9.50;66.70
76878;DHT22;65843;50.692;12.844;2023-11-22T02:04:56;9.50;67.00
76878;DHT22;65843;50.692;12.844;2023-11-22T02:05:57;9.50;66.80
76878;DHT22;65843;50.692;12.844;2023-11-22T02:06:59;9.50;66.60
76878;DHT22;65843;50.692;12.844;2023-11-22T02:08:00;9.50;66.80
76878;DHT22;65843;50.692;12.844;2023-11-22T02:09:01;9.50;67.00
76878;DHT22;65843;50.692;12.844;2023-11-22T02:10:02;9.40;67.20
76878;DHT22;65843;50.692;12.844;2023-11-22T02:11:08;9.40;67.30
76878;DHT22;65843;50.692;12.844;2023-11-22T02:12:09;9.40;67.40
76878;DHT22;65843;50.692;12.844;2023-11-22T02:13:10;9.40;66.80
76878;DHT22;65843;50.692;12.844;2023-11-22T02:14:11;9.40;66.90
76878;DHT22;65843;50.692;12.844;2023-11-22T02:15:12;9.40;67.10
76878;DHT22;65843;50.692;12.844;2023-11-22T02:16:13;9.40;67.30
76878;DHT22;65843;50.692;12.844;2023-11-22T02:17:15;9.40;67.00
76878;DHT22;65843;50.692;12.844;2023-11-22T02:18:17;9.40;67.10
76878;DHT22;65843;50.692;12.844;2023-11-22T02:19:18;9.40;67.00
76878;DHT22;65843;50.692;12.844;2023-11-22T02:20:19;9.40;67.20
76878;DHT22;65843;50.692;12.844;2023-11-22T02:21:20;9.40;67.50
76878;DHT22;65843;50.692;12.844;2023-11-22T02:22:22;9.40;67.30
76878;DHT22;65843;50.692;12.844;2023-11-22T02:23:23;9.40;67.30
76878;DHT22;65843;50.692;12.844;2023-11-22T02:24:24;9.40;67.40
76878;DHT22;65843;50.692;12.844;2023-11-22T02:25:24;9.40;67.20
76878;DHT22;65843;50.692;12.844;2023-11-22T02:26:25;9.40;67.30
76878;DHT22;65843;50.692;12.844;2023-11-22T02:27:26;9.40;67.00
76878;DHT22;65843;50.692;12.844;2023-11-22T02:28:27;9.40;67.00
76878;DHT22;65843;50.692;12.844;2023-11-22T02:29:28;9.40;67.00
76878;DHT22;65843;50.692;12.844;2023-11-22T02:30:29;9.40;67.30
76878;DHT22;65843;50.692;12.844;2023-11-22T02:31:30;9.40;67.30
76878;DHT22;65843;50.692;12.844;2023-11-22T02:32:31;9.40;67.00
76878;DHT22;65843;50.692;12.844;2023-11-22T02:33:33;9.40;67.20
76878;DHT22;65843;50.692;12.844;2023-11-22T02:34:34;9.40;67.10
76878;DHT22;65843;50.692;12.844;2023-11-22T02:35:35;9.40;67.10
76878;DHT22;65843;50.692;12.844;2023-11-22T02:36:37;9.40;67.20
76878;DHT22;65843;50.692;12.844;2023-11-22T02:37:37;9.40;67.20
76878;DHT22;65843;50.692;12.844;2023-11-22T02:38:38;9.40;67.20
76878;DHT22;65843;50.692;12.844;2023-11-22T02:40:59;9.40;67.20
76878;DHT22;65843;50.692;12.844;2023-11-22T02:42:00;9.40;66.70
76878;DHT22;65843;50.692;12.844;2023-11-22T02:43:01;9.40;66.90
76878;DHT22;65843;50.692;12.844;2023-11-22T02:44:06;9.40;66.90
76878;DHT22;65843;50.692;12.844;2023-11-22T02:45:09;9.40;67.10
76878;DHT22;65843;50.692;12.844;2023-11-22T02:46:11;9.40;67.00
76878;DHT22;65843;50.692;12.844;2023-11-22T02:47:12;9.40;67.10
76878;DHT22;65843;50.692;12.844;2023-11-22T02:48:12;9.40;66.70
76878;DHT22;65843;50.692;12.844;2023-11-22T02:49:14;9.40;66.60
76878;DHT22;65843;50.692;12.844;2023-11-22T02:50:16;9.40;66.70
76878;DHT22;65843;50.692;12.844;2023-11-22T02:51:17;9.40;66.40
76878;DHT22;65843;50.692;12.844;2023-11-22T02:52:18;9.40;66.20
76878;DHT22;65843;50.692;12.844;2023-11-22T02:53:18;9.40;66.80
76878;DHT22;65843;50.692;12.844;2023-11-22T02:54:19;9.40;67.00
76878;DHT22;65843;50.692;12.844;2023-11-22T02:55:20;9.40;67.20
76878;DHT22;65843;50.692;12.844;2023-11-22T02:56:21;9.50;67.00
76878;DHT22;65843;50.692;12.844;2023-11-22T02:57:22;9.50;66.70
76878;DHT22;65843;50.692;12.844;2023-11-22T02:58:23;9.50;66.60
76878;DHT22;65843;50.692;12.844;2023-11-22T02:59:24;9.50;66.10
76878;DHT22;65843;50.692;12.844;2023-11-22T03:00:25;9.40;65.90
76878;DHT22;65843;50.692;12.844;2023-11-22T03:01:26;9.40;66.20
76878;DHT22;65843;50.692;12.844;2023-11-22T03:02:27;9.40;66.30
76878;DHT22;65843;50.692;12.844;2023-11-22T03:03:27;9.40;66.30
76878;DHT22;65843;50.692;12.844;2023-11-22T03:04:29;9.40;66.40
76878;DHT22;65843;50.692;12.844;2023-11-22T03:05:30;9.40;66.40
76878;DHT22;65843;50.692;12.844;2023-11-22T03:06:31;9.40;66.50
76878;DHT22;65843;50.692;12.844;2023-11-22T03:07:32;9.40;66.60
76878;DHT22;65843;50.692;12.844;2023-11-22T03:08:33;9.40;66.50
76878;DHT22;65843;50.692;12.844;2023-11-22T03:09:34;9.40;66.20
76878;DHT22;65843;50.692;12.844;2023-11-22T03:10:34;9.30;65.50
76878;DHT22;65843;50.692;12.844;2023-11-22T03:11:36;9.30;66.00
76878;DHT22;65843;50.692;12.844;2023-11-22T03:12:46;9.20;66.00
76878;DHT22;65843;50.692;12.844;2023-11-22T03:13:48;9.20;66.60
76878;DHT22;65843;50.692;12.844;2023-11-22T03:14:50;9.20;66.50
76878;DHT22;65843;50.692;12.844;2023-11-22T03:15:50;9.20;66.10
76878;DHT22;65843;50.692;12.844;2023-11-22T03:16:52;9.20;66.50
76878;DHT22;65843;50.692;12.844;2023-11-22T03:17:53;9.20;66.20
76878;DHT22;65843;50.692;12.844;2023-11-22T03:18:55;9.20;66.60
76878;DHT22;65843;50.692;12.844;2023-11-22T03:19:57;9.20;66.60
76878;DHT22;65843;50.692;12.844;2023-11-22T03:20:58;9.20;66.70
76878;DHT22;65843;50.692;12.844;2023-11-22T03:22:01;9.20;66.40
76878;DHT22;65843;50.692;12.844;2023-11-22T03:23:04;9.20;66.60
76878;DHT22;65843;50.692;12.844;2023-11-22T03:24:05;9.20;66.50
76878;DHT22;65843;50.692;12.844;2023-11-22T03:25:07;9.20;66.50
76878;DHT22;65843;50.692;12.844;2023-11-22T03:26:10;9.20;66.40
76878;DHT22;65843;50.692;12.844;2023-11-22T03:27:12;9.20;66.80
76878;DHT22;65843;50.692;12.844;2023-11-22T03:28:13;9.20;66.60
76878;DHT22;65843;50.692;12.844;2023-11-22T03:29:14;9.20;66.90
76878;DHT22;65843;50.692;12.844;2023-11-22T03:30:17;9.20;66.90
76878;DHT22;65843;50.692;12.844;2023-11-22T03:31:18;9.20;66.80
76878;DHT22;65843;50.692;12.844;2023-11-22T03:32:19;9.20;66.70
76878;DHT22;65843;50.692;12.844;2023-11-22T03:33:19;9.20;66.60
76878;DHT22;65843;50.692;12.844;2023-11-22T03:34:21;9.20;66.50
76878;DHT22;65843;50.692;12.844;2023-11-22T03:35:22;9.20;66.30
76878;DHT22;65843;50.692;12.844;2023-11-22T03:36:23;9.20;66.40
76878;DHT22;65843;50.692;12.844;2023-11-22T03:37:24;9.10;66.50
76878;DHT22;65843;50.692;12.844;2023-11-22T03:38:25;9.10;66.60
76878;DHT22;65843;50.692;12.844;2023-11-22T03:39:26;9.10;66.80
76878;DHT22;65843;50.692;12.844;2023-11-22T03:40:27;9.10;66.80
76878;DHT22;65843;50.692;12.844;2023-11-22T03:41:28;9.10;66.80
76878;DHT22;65843;50.692;12.844;2023-11-22T03:42:29;9.10;66.90
76878;DHT22;65843;50.692;12.844;2023-11-22T03:43:30;9.20;67.00
76878;DHT22;65843;50.692;12.844;2023-11-22T03:44:31;9.20;66.90
76878;DHT22;65843;50.692;12.844;2023-11-22T03:45:32;9.20;66.50
76878;DHT22;65843;50.692;12.844;2023-11-22T03:46:33;9.20;67.00
76878;DHT22;65843;50.692;12.844;2023-11-22T03:47:34;9.20;67.00
76878;DHT22;65843;50.692;12.844;2023-11-22T03:48:38;9.20;66.50
76878;DHT22;65843;50.692;12.844;2023-11-22T03:49:39;9.20;66.40
76878;DHT22;65843;50.692;12.844;2023-11-22T03:50:40;9.20;66.20
76878;DHT22;65843;50.692;12.844;2023-11-22T03:51:42;9.20;66.20
76878;DHT22;65843;50.692;12.844;2023-11-22T03:52:43;9.30;65.90
76878;DHT22;65843;50.692;12.844;2023-11-22T03:53:44;9.30;66.30
76878;DHT22;65843;50.692;12.844;2023-11-22T03:54:45;9.20;66.20
76878;DHT22;65843;50.692;12.844;2023-11-22T03:55:45;9.30;66.20
76878;DHT22;65843;50.692;12.844;2023-11-22T03:56:46;9.30;65.80
76878;DHT22;65843;50.692;12.844;2023-11-22T03:57:47;9.30;66.10
76878;DHT22;65843;50.692;12.844;2023-11-22T03:58:48;9.30;66.00
76878;DHT22;65843;50.692;12.844;2023-11-22T03:59:49;9.30;65.90
76878;DHT22;65843;50.692;12.844;2023-11-22T04:00:51;9.30;65.90
76878;DHT22;65843;50.692;12.844;2023-11-22T04:01:53;9.30;65.80
76878;DHT22;65843;50.692;12.844;2023-11-22T04:02:54;9.30;65.90
76878;DHT22;65843;50.692;12.844;2023-11-22T04:03:57;9.20;66.30
76878;DHT22;65843;50.692;12.844;2023-11-22T04:04:58;9.20;66.40
76878;DHT22;65843;50.692;12.844;2023-11-22T04:05:59;9.30;66.30
76878;DHT22;65843;50.692;12.844;2023-11-22T04:07:00;9.30;65.90
76878;DHT22;65843;50.692;12.844;2023-11-22T04:08:00;9.20;66.00
76878;DHT22;65843;50.692;12.844;2023-11-22T04:09:01;9.20;66.10
76878;DHT22;65843;50.692;12.844;2023-11-22T04:10:02;9.30;66.20
76878;DHT22;65843;50.692;12.844;2023-11-22T04:11:04;9.20;66.20
76878;DHT22;65843;50.692;12.844;2023-11-22T04:12:06;9.20;66.00
76878;DHT22;65843;50.692;12.844;2023-11-22T04:13:07;9.20;65.40
76878;DHT22;65843;50.692;12.844;2023-11-22T04:14:08;9.20;65.50
76878;DHT22;65843;50.692;12.844;2023-11-22T04:15:09;9.20;65.50
76878;DHT22;65843;50.692;12.844;2023-11-22T04:16:10;9.20;65.60
76878;DHT22;65843;50.692;12.844;2023-11-22T04:17:13;9.20;65.50
76878;DHT22;65843;50.692;12.844;2023-11-22T04:18:14;9.20;65.50
76878;DHT22;65843;50.692;12.844;2023-11-22T04:19:15;9.10;65.60
76878;DHT22;65843;50.692;12.844;2023-11-22T04:20:16;9.10;66.10
76878;DHT22;65843;50.692;12.844;2023-11-22T04:21:18;9.00;66.20
76878;DHT22;65843;50.692;12.844;2023-11-22T04:22:19;9.00;66.40
76878;DHT22;65843;50.692;12.844;2023-11-22T04:23:20;9.10;66.40
76878;DHT22;65843;50.692;12.844;2023-11-22T04:24:22;9.10;66.20
76878;DHT22;65843;50.692;12.844;2023-11-22T04:25:22;9.10;66.40
76878;DHT22;65843;50.692;12.844;2023-11-22T04:26:24;9.10;66.20
76878;DHT22;65843;50.692;12.844;2023-11-22T04:27:25;9.10;66.20
76878;DHT22;65843;50.692;12.844;2023-11-22T04:28:26;9.10;65.80
76878;DHT22;65843;50.692;12.844;2023-11-22T04:29:28;9.10;65.60
76878;DHT22;65843;50.692;12.844;2023-11-22T04:30:29;9.10;65.60
76878;DHT22;65843;50.692;12.844;2023-11-22T04:31:30;9.00;65.70
76878;DHT22;65843;50.692;12.844;2023-11-22T04:32:31;9.00;65.70
76878;DHT22;65843;50.692;12.844;2023-11-22T04:33:33;9.00;65.70
76878;DHT22;65843;50.692;12.844;2023-11-22T04:34:34;9.00;65.90
76878;DHT22;65843;50.692;12.844;2023-11-22T04:35:35;9.00;66.00
76878;DHT22;65843;50.692;12.844;2023-11-22T04:36:38;9.00;65.70
76878;DHT22;65843;50.692;12.844;2023-11-22T04:37:39;9.00;65.50
76878;DHT22;65843;50.692;12.844;2023-11-22T04:38:40;9.00;65.50
76878;DHT22;65843;50.692;12.844;2023-11-22T04:39:41;9.00;65.60
76878;DHT22;65843;50.692;12.844;2023-11-22T04:40:42;9.00;65.70
76878;DHT22;65843;50.692;12.844;2023-11-22T04:41:45;9.00;66.00
76878;DHT22;65843;50.692;12.844;2023-11-22T04:42:46;9.00;65.70
76878;DHT22;65843;50.692;12.844;2023-11-22T04:43:49;9.00;65.40
76878;DHT22;65843;50.692;12.844;2023-11-22T04:44:49;9.00;65.70
76878;DHT22;65843;50.692;12.844;2023-11-22T04:45:50;8.90;66.00
76878;DHT22;65843;50.692;12.844;2023-11-22T04:46:51;9.00;66.00
76878;DHT22;65843;50.692;12.844;2023-11-22T04:47:52;9.00;66.00
76878;DHT22;65843;50.692;12.844;2023-11-22T04:48:53;9.00;65.90
76878;DHT22;65843;50.692;12.844;2023-11-22T04:49:54;9.00;66.20
76878;DHT22;65843;50.692;12.844;2023-11-22T04:50:55;9.00;66.20
76878;DHT22;65843;50.692;12.844;2023-11-22T04:51:56;9.00;65.80
76878;DHT22;65843;50.692;12.844;2023-11-22T04:52:57;9.10;65.50
76878;DHT22;65843;50.692;12.844;2023-11-22T04:53:58;9.00;65.60
76878;DHT22;65843;50.692;12.844;2023-11-22T04:54:59;9.10;65.80
76878;DHT22;65843;50.692;12.844;2023-11-22T04:56:00;9.10;65.60
76878;DHT22;65843;50.692;12.844;2023-11-22T04:57:05;9.10;65.90
76878;DHT22;65843;50.692;12.844;2023-11-22T04:58:06;9.20;65.60
76878;DHT22;65843;50.692;12.844;2023-11-22T04:59:07;9.20;65.80
76878;DHT22;65843;50.692;12.844;2023-11-22T05:00:08;9.20;65.70
76878;DHT22;65843;50.692;12.844;2023-11-22T05:01:09;9.20;65.60
76878;DHT22;65843;50.692;12.844;2023-11-22T05:02:10;9.20;65.30
76878;DHT22;65843;50.692;12.844;2023-11-22T05:03:12;9.20;65.50
76878;DHT22;65843;50.692;12.844;2023-11-22T05:04:13;9.10;65.50
76878;DHT22;65843;50.692;12.844;2023-11-22T05:05:15;9.10;65.60
76878;DHT22;65843;50.692;12.844;2023-11-22T05:06:16;9.10;65.40
76878;DHT22;65843;50.692;12.844;2023-11-22T05:07:17;9.10;65.50
76878;DHT22;65843;50.692;12.844;2023-11-22T05:08:19;9.10;65.50
76878;DHT22;65843;50.692;12.844;2023-11-22T05:09:20;9.00;65.60
76878;DHT22;65843;50.692;12.844;2023-11-22T05:10:21;9.00;65.70
76878;DHT22;65843;50.692;12.844;2023-11-22T05:11:22;9.00;65.90
76878;DHT22;65843;50.692;12.844;2023-11-22T05:12:23;9.00;65.90
76878;DHT22;65843;50.692;12.844;2023-11-22T05:13:24;9.00;65.80
76878;DHT22;65843;50.692;12.844;2023-11-22T05:14:25;9.00;66.10
76878;DHT22;65843;50.692;12.844;2023-11-22T05:15:26;9.00;66.00
76878;DHT22;65843;50.692;12.844;2023-11-22T05:16:27;9.00;65.60
76878;DHT22;65843;50.692;12.844;2023-11-22T05:17:28;9.00;65.40
76878;DHT22;65843;50.692;12.844;2023-11-22T05:18:29;9.00;65.60
76878;DHT22;65843;50.692;12.844;2023-11-22T05:19:30;9.00;65.80
76878;DHT22;65843;50.692;12.844;2023-11-22T05:20:32;9.00;65.90
76878;DHT22;65843;50.692;12.844;2023-11-22T05:21:33;9.00;66.00
76878;DHT22;65843;50.692;12.844;2023-11-22T05:22:35;9.00;65.90
76878;DHT22;65843;50.692;12.844;2023-11-22T05:23:36;9.00;65.90
76878;DHT22;65843;50.692;12.844;2023-11-22T05:24:38;9.00;65.70
76878;DHT22;65843;50.692;12.844;2023-11-22T05:25:42;9.00;65.90
76878;DHT22;65843;50.692;12.844;2023-11-22T05:26:42;9.00;65.80
76878;DHT22;65843;50.692;12.844;2023-11-22T05:27:43;9.00;65.70
76878;DHT22;65843;50.692;12.844;2023-11-22T05:28:44;9.00;65.70
76878;DHT22;65843;50.692;12.844;2023-11-22T05:29:45;9.00;65.90
76878;DHT22;65843;50.692;12.844;2023-11-22T05:30:47;9.00;65.80
76878;DHT22;65843;50.692;12.844;2023-11-22T05:31:47;9.00;65.90
76878;DHT22;65843;50.692;12.844;2023-11-22T05:32:49;9.00;66.10
76878;DHT22;65843;50.692;12.844;2023-11-22T05:33:50;9.00;66.00
76878;DHT22;65843;50.692;12.844;2023-11-22T05:34:51;9.00;66.00
76878;DHT22;65843;50.692;12.844;2023-11-22T05:35:52;9.00;65.90
76878;DHT22;65843;50.692;12.844;2023-11-22T05:36:53;9.00;66.00
76878;DHT22;65843;50.692;12.844;2023-11-22T05:37:53;9.00;66.00
76878;DHT22;65843;50.692;12.844;2023-11-22T05:38:54;9.00;66.00
76878;DHT22;65843;50.692;12.844;2023-11-22T05:39:55;9.00;66.00
76878;DHT22;65843;50.692;12.844;2023-11-22T05:40:56;9.00;66.10
76878;DHT22;65843;50.692;12.844;2023-11-22T05:41:57;9.00;66.10
76878;DHT22;65843;50.692;12.844;2023-11-22T05:42:58;9.00;66.00
76878;DHT22;65843;50.692;12.844;2023-11-22T05:43:59;9.00;66.00
76878;DHT22;65843;50.692;12.844;2023-11-22T05:45:00;9.00;65.90
76878;DHT22;65843;50.692;12.844;2023-11-22T05:46:04;9.00;65.40
76878;DHT22;65843;50.692;12.844;2023-11-22T05:47:05;9.00;65.80
76878;DHT22;65843;50.692;12.844;2023-11-22T05:48:08;9.00;65.90
76878;DHT22;65843;50.692;12.844;2023-11-22T05:49:09;9.00;66.10
76878;DHT22;65843;50.692;12.844;2023-11-22T05:50:11;9.00;65.90
76878;DHT22;65843;50.692;12.844;2023-11-22T05:51:12;9.00;65.80
76878;DHT22;65843;50.692;12.844;2023-11-22T05:52:13;9.00;65.90
76878;DHT22;65843;50.692;12.844;2023-11-22T05:53:14;9.00;65.60
76878;DHT22;65843;50.692;12.844;2023-11-22T05:54:19;9.10;65.60
76878;DHT22;65843;50.692;12.844;2023-11-22T05:55:20;9.00;65.00
76878;DHT22;65843;50.692;12.844;2023-11-22T05:56:23;9.10;65.10
76878;DHT22;65843;50.692;12.844;2023-11-22T05:57:24;9.10;64.30
76878;DHT22;65843;50.692;12.844;2023-11-22T05:58:25;9.00;64.50
76878;DHT22;65843;50.692;12.844;2023-11-22T05:59:26;9.00;64.90
76878;DHT22;65843;50.692;12.844;2023-11-22T06:00:27;9.00;64.90
76878;DHT22;65843;50.692;12.844;2023-11-22T06:01:28;9.00;64.90
76878;DHT22;65843;50.692;12.844;2023-11-22T06:02:29;9.00;65.20
76878;DHT22;65843;50.692;12.844;2023-11-22T06:03:30;9.00;65.30
76878;DHT22;65843;50.692;12.844;2023-11-22T06:04:31;9.00;65.60
76878;DHT22;65843;50.692;12.844;2023-11-22T06:05:32;9.00;65.20
76878;DHT22;65843;50.692;12.844;2023-11-22T06:06:32;9.00;65.10
76878;DHT22;65843;50.692;12.844;2023-11-22T06:07:34;9.00;65.20
76878;DHT22;65843;50.692;12.844;2023-11-22T06:08:34;9.00;65.10
76878;DHT22;65843;50.692;12.844;2023-11-22T06:09:35;9.00;65.40
76878;DHT22;65843;50.692;12.844;2023-11-22T06:10:36;9.00;65.70
76878;DHT22;65843;50.692;12.844;2023-11-22T06:11:41;9.00;65.70
76878;DHT22;65843;50.692;12.844;2023-11-22T06:12:42;9.00;65.90
76878;DHT22;65843;50.692;12.844;2023-11-22T06:13:44;9.00;65.70
76878;DHT22;65843;50.692;12.844;2023-11-22T06:14:47;9.00;65.30
76878;DHT22;65843;50.692;12.844;2023-11-22T06:15:48;9.00;65.00
76878;DHT22;65843;50.692;12.844;2023-11-22T06:16:49;9.00;65.40
76878;DHT22;65843;50.692;12.844;2023-11-22T06:17:50;9.00;65.30
76878;DHT22;65843;50.692;12.844;2023-11-22T06:18:57;9.00;65.70
76878;DHT22;65843;50.692;12.844;2023-11-22T06:19:58;9.00;65.70
76878;DHT22;65843;50.692;12.844;2023-11-22T06:20:59;9.00;65.40
76878;DHT22;65843;50.692;12.844;2023-11-22T06:22:00;9.00;65.30
76878;DHT22;65843;50.692;12.844;2023-11-22T06:23:01;9.00;65.40
76878;DHT22;65843;50.692;12.844;2023-11-22T06:24:03;9.00;65.00
76878;DHT22;65843;50.692;12.844;2023-11-22T06:25:08;9.00;65.10
76878;DHT22;65843;50.692;12.844;2023-11-22T06:26:09;8.90;65.00
76878;DHT22;65843;50.692;12.844;2023-11-22T06:27:10;8.90;65.30
76878;DHT22;65843;50.692;12.844;2023-11-22T06:28:11;8.90;65.40